WIII/CGK METAR and TAF weather

Enter ICAO airport designator
Station Type Date Time Source
WIII METAR 2021/06/24 06:30 UTC NOAA

WIII 240630Z 08009KT 6000 BKN020 29/24 Q1011 NOSIG


Station Type Date Time Source
WIII Decoded METAR 2021/06/24 06:30 UTC NOAA

Jakarta / Soekarno-Hatta, Indonesia (WIII) 06-07S 106-39E 8M
Jun 24, 2021 - 02:30 AM EDT / 2021.06.24 0630 UTC
Wind: from the E (080 degrees) at 10 MPH (9 KT):0
Visibility: 3 mile(s):0
Sky conditions: mostly cloudy
Temperature: 84 F (29 C)
Dew Point: 75 F (24 C)
Relative Humidity: 74%
Pressure (altimeter): 29.85 in. Hg (1011 hPa)
ob: WIII 240630Z 08009KT 6000 BKN020 29/24 Q1011 NOSIG
cycle: 6

Station Type Date Time Source
WIII TAF 2021/06/24 06:46 UTC NOAA

TAF WIII 240500Z 2406/2512 04012KT 4000 HZ SCT020
TEMPO 2407/2410 -TSRA FEW018CB
BECMG 2412/2414 27005KT

Example: see airport list